sensor_id;sensor_type;location;lat;lon;timestamp;pressure;altitude;pressure_sealevel;temperature;humidity
28310;BME280;15571;50.974;13.936;2024-02-04T00:01:41;100422.56;;;11.54;100.00
28310;BME280;15571;50.974;13.936;2024-02-04T00:04:43;100423.44;;;11.50;100.00
28310;BME280;15571;50.974;13.936;2024-02-04T00:07:45;100430.38;;;11.57;100.00
28310;BME280;15571;50.974;13.936;2024-02-04T00:10:47;100425.22;;;11.49;100.00
28310;BME280;15571;50.974;13.936;2024-02-04T00:13:50;100421.66;;;11.58;100.00
28310;BME280;15571;50.974;13.936;2024-02-04T00:16:54;100417.31;;;11.52;100.00
28310;BME280;15571;50.974;13.936;2024-02-04T00:19:56;100424.41;;;11.38;100.00
28310;BME280;15571;50.974;13.936;2024-02-04T00:22:58;100420.78;;;11.59;100.00
28310;BME280;15571;50.974;13.936;2024-02-04T00:26:00;100410.22;;;11.72;100.00
28310;BME280;15571;50.974;13.936;2024-02-04T00:29:04;100409.34;;;11.68;100.00
28310;BME280;15571;50.974;13.936;2024-02-04T00:32:07;100417.28;;;11.60;100.00
28310;BME280;15571;50.974;13.936;2024-02-04T00:35:09;100411.13;;;11.63;100.00
28310;BME280;15571;50.974;13.936;2024-02-04T00:38:11;100411.97;;;11.68;100.00
28310;BME280;15571;50.974;13.936;2024-02-04T00:41:13;100408.53;;;11.58;100.00
28310;BME280;15571;50.974;13.936;2024-02-04T00:44:15;100408.59;;;11.49;100.00
28310;BME280;15571;50.974;13.936;2024-02-04T00:47:19;100423.50;;;11.44;100.00
28310;BME280;15571;50.974;13.936;2024-02-04T00:50:21;100426.00;;;11.62;100.00
28310;BME280;15571;50.974;13.936;2024-02-04T00:53:23;100426.03;;;11.58;100.00
28310;BME280;15571;50.974;13.936;2024-02-04T00:56:28;100429.59;;;11.44;100.00
28310;BME280;15571;50.974;13.936;2024-02-04T00:59:30;100432.25;;;11.38;100.00
28310;BME280;15571;50.974;13.936;2024-02-04T01:02:35;100448.78;;;11.54;100.00
28310;BME280;15571;50.974;13.936;2024-02-04T01:05:40;100422.56;;;11.54;100.00
28310;BME280;15571;50.974;13.936;2024-02-04T01:08:43;100415.50;;;11.64;100.00
28310;BME280;15571;50.974;13.936;2024-02-04T01:11:45;100419.91;;;11.57;100.00
28310;BME280;15571;50.974;13.936;2024-02-04T01:14:48;100412.91;;;11.58;100.00
28310;BME280;15571;50.974;13.936;2024-02-04T01:17:51;100410.44;;;11.34;100.00
28310;BME280;15571;50.974;13.936;2024-02-04T01:20:54;100403.41;;;11.40;100.00
28310;BME280;15571;50.974;13.936;2024-02-04T01:23:56;100400.84;;;11.30;100.00
28310;BME280;15571;50.974;13.936;2024-02-04T01:26:57;100421.84;;;11.29;100.00
28310;BME280;15571;50.974;13.936;2024-02-04T01:29:59;100414.81;;;11.29;100.00
28310;BME280;15571;50.974;13.936;2024-02-04T01:33:04;100413.13;;;11.22;100.00
28310;BME280;15571;50.974;13.936;2024-02-04T01:36:07;100430.66;;;11.09;100.00
28310;BME280;15571;50.974;13.936;2024-02-04T01:39:09;100422.72;;;11.23;100.00
28310;BME280;15571;50.974;13.936;2024-02-04T01:42:12;100427.97;;;11.23;100.00
28310;BME280;15571;50.974;13.936;2024-02-04T01:45:14;100422.72;;;11.20;100.00
28310;BME280;15571;50.974;13.936;2024-02-04T01:48:18;100414.91;;;11.18;100.00
28310;BME280;15571;50.974;13.936;2024-02-04T01:51:22;100412.25;;;11.20;100.00
28310;BME280;15571;50.974;13.936;2024-02-04T01:54:27;100408.81;;;11.15;100.00
28310;BME280;15571;50.974;13.936;2024-02-04T01:57:29;100414.94;;;11.09;100.00
28310;BME280;15571;50.974;13.936;2024-02-04T02:00:31;100416.69;;;11.07;100.00
28310;BME280;15571;50.974;13.936;2024-02-04T02:03:34;100419.31;;;11.10;100.00
28310;BME280;15571;50.974;13.936;2024-02-04T02:06:37;100412.38;;;10.95;100.00
28310;BME280;15571;50.974;13.936;2024-02-04T02:09:42;100428.09;;;10.92;100.00
28310;BME280;15571;50.974;13.936;2024-02-04T02:12:47;100425.50;;;10.90;100.00
28310;BME280;15571;50.974;13.936;2024-02-04T02:15:58;100415.88;;;10.94;100.00
28310;BME280;15571;50.974;13.936;2024-02-04T02:19:08;100414.09;;;11.02;100.00
28310;BME280;15571;50.974;13.936;2024-02-04T02:22:19;100401.88;;;11.04;100.00
28310;BME280;15571;50.974;13.936;2024-02-04T02:25:29;100400.13;;;11.02;100.00
28310;BME280;15571;50.974;13.936;2024-02-04T02:28:32;100389.63;;;11.07;100.00
28310;BME280;15571;50.974;13.936;2024-02-04T02:31:35;100394.88;;;11.03;100.00
28310;BME280;15571;50.974;13.936;2024-02-04T02:34:38;100386.16;;;11.04;100.00
28310;BME280;15571;50.974;13.936;2024-02-04T02:37:43;100391.38;;;11.01;100.00
28310;BME280;15571;50.974;13.936;2024-02-04T02:40:53;100398.38;;;11.02;100.00
28310;BME280;15571;50.974;13.936;2024-02-04T02:43:56;100382.66;;;11.02;100.00
28310;BME280;15571;50.974;13.936;2024-02-04T02:46:58;100388.78;;;11.01;100.00
28310;BME280;15571;50.974;13.936;2024-02-04T02:50:02;100401.00;;;10.99;100.00
28310;BME280;15571;50.974;13.936;2024-02-04T02:53:07;100393.09;;;11.09;100.00
28310;BME280;15571;50.974;13.936;2024-02-04T02:56:10;100391.44;;;10.95;100.00
28310;BME280;15571;50.974;13.936;2024-02-04T02:59:12;100387.03;;;10.97;100.00
28310;BME280;15571;50.974;13.936;2024-02-04T03:02:14;100385.28;;;10.98;100.00
28310;BME280;15571;50.974;13.936;2024-02-04T03:05:16;100379.19;;;10.96;100.00
28310;BME280;15571;50.974;13.936;2024-02-04T03:08:19;100373.94;;;10.99;100.00
28310;BME280;15571;50.974;13.936;2024-02-04T03:11:24;100364.38;;;10.92;100.00
28310;BME280;15571;50.974;13.936;2024-02-04T03:14:30;100372.19;;;10.99;100.00
28310;BME280;15571;50.974;13.936;2024-02-04T03:17:32;100376.53;;;11.05;100.00
28310;BME280;15571;50.974;13.936;2024-02-04T03:20:34;100383.50;;;11.08;100.00
28310;BME280;15571;50.974;13.936;2024-02-04T03:23:36;100381.75;;;11.10;100.00
28310;BME280;15571;50.974;13.936;2024-02-04T03:26:39;100372.16;;;11.05;100.00
28310;BME280;15571;50.974;13.936;2024-02-04T03:29:41;100376.47;;;11.14;100.00
28310;BME280;15571;50.974;13.936;2024-02-04T03:32:43;100373.00;;;11.14;100.00
28310;BME280;15571;50.974;13.936;2024-02-04T03:35:45;100379.06;;;11.22;100.00
28310;BME280;15571;50.974;13.936;2024-02-04T03:38:47;100375.50;;;11.35;100.00
28310;BME280;15571;50.974;13.936;2024-02-04T03:41:51;100372.94;;;11.25;100.00
28310;BME280;15571;50.974;13.936;2024-02-04T03:44:53;100375.56;;;11.20;100.00
28310;BME280;15571;50.974;13.936;2024-02-04T03:47:55;100378.28;;;11.04;100.00
28310;BME280;15571;50.974;13.936;2024-02-04T03:50:57;100399.22;;;11.08;100.00
28310;BME280;15571;50.974;13.936;2024-02-04T03:53:59;100387.78;;;11.21;100.00
28310;BME280;15571;50.974;13.936;2024-02-04T03:57:03;100391.41;;;11.00;100.00
28310;BME280;15571;50.974;13.936;2024-02-04T04:00:06;100387.91;;;11.02;100.00
28310;BME280;15571;50.974;13.936;2024-02-04T04:03:12;100387.94;;;10.90;100.00
28310;BME280;15571;50.974;13.936;2024-02-04T04:06:17;100393.25;;;10.74;100.00
28310;BME280;15571;50.974;13.936;2024-02-04T04:09:19;100392.41;;;10.71;100.00
28310;BME280;15571;50.974;13.936;2024-02-04T04:12:22;100401.97;;;10.73;100.00
28310;BME280;15571;50.974;13.936;2024-02-04T04:15:24;100404.59;;;10.75;100.00
28310;BME280;15571;50.974;13.936;2024-02-04T04:18:26;100395.84;;;10.73;100.00
28310;BME280;15571;50.974;13.936;2024-02-04T04:21:27;100376.63;;;10.79;100.00
28310;BME280;15571;50.974;13.936;2024-02-04T04:24:31;100365.31;;;10.78;100.00
28310;BME280;15571;50.974;13.936;2024-02-04T04:27:35;100366.19;;;10.76;100.00
28310;BME280;15571;50.974;13.936;2024-02-04T04:30:37;100374.06;;;10.76;100.00
28310;BME280;15571;50.974;13.936;2024-02-04T04:33:39;100376.69;;;10.63;100.00
28310;BME280;15571;50.974;13.936;2024-02-04T04:36:41;100369.69;;;10.70;100.00
28310;BME280;15571;50.974;13.936;2024-02-04T04:39:42;100359.22;;;10.71;100.00
28310;BME280;15571;50.974;13.936;2024-02-04T04:42:46;100360.13;;;10.63;100.00
28310;BME280;15571;50.974;13.936;2024-02-04T04:45:48;100362.75;;;10.64;100.00
28310;BME280;15571;50.974;13.936;2024-02-04T04:48:50;100367.09;;;10.70;100.00
28310;BME280;15571;50.974;13.936;2024-02-04T04:51:55;100366.22;;;10.68;100.00
28310;BME280;15571;50.974;13.936;2024-02-04T04:54:58;100358.34;;;10.69;100.00
28310;BME280;15571;50.974;13.936;2024-02-04T04:58:02;100356.63;;;10.67;100.00
28310;BME280;15571;50.974;13.936;2024-02-04T05:01:04;100353.09;;;10.69;100.00
28310;BME280;15571;50.974;13.936;2024-02-04T05:04:06;100353.97;;;10.79;100.00
28310;BME280;15571;50.974;13.936;2024-02-04T05:07:11;100345.28;;;10.71;100.00
28310;BME280;15571;50.974;13.936;2024-02-04T05:10:13;100347.88;;;10.69;100.00
28310;BME280;15571;50.974;13.936;2024-02-04T05:13:17;100327.78;;;10.82;100.00
28310;BME280;15571;50.974;13.936;2024-02-04T05:16:20;100321.69;;;10.69;100.00
28310;BME280;15571;50.974;13.936;2024-02-04T05:19:22;100316.41;;;10.79;100.00
28310;BME280;15571;50.974;13.936;2024-02-04T05:22:24;100311.22;;;10.72;100.00
28310;BME280;15571;50.974;13.936;2024-02-04T05:25:26;100310.28;;;10.83;100.00
28310;BME280;15571;50.974;13.936;2024-02-04T05:28:29;100316.31;;;10.97;100.00
28310;BME280;15571;50.974;13.936;2024-02-04T05:31:31;100302.34;;;10.97;100.00
28310;BME280;15571;50.974;13.936;2024-02-04T05:34:33;100287.50;;;11.02;100.00
28310;BME280;15571;50.974;13.936;2024-02-04T05:37:38;100303.19;;;11.07;100.00
28310;BME280;15571;50.974;13.936;2024-02-04T05:40:40;100304.94;;;11.03;100.00
28310;BME280;15571;50.974;13.936;2024-02-04T05:43:44;100297.06;;;11.03;100.00
28310;BME280;15571;50.974;13.936;2024-02-04T05:46:46;100302.31;;;11.03;100.00
28310;BME280;15571;50.974;13.936;2024-02-04T05:49:48;100301.50;;;10.95;100.00
28310;BME280;15571;50.974;13.936;2024-02-04T05:52:50;100287.53;;;10.94;100.00
28310;BME280;15571;50.974;13.936;2024-02-04T05:55:51;100284.75;;;11.19;100.00
28310;BME280;15571;50.974;13.936;2024-02-04T05:58:55;100287.44;;;11.08;100.00
28310;BME280;15571;50.974;13.936;2024-02-04T06:01:57;100284.84;;;11.05;100.00
28310;BME280;15571;50.974;13.936;2024-02-04T06:05:01;100295.38;;;10.99;100.00
28310;BME280;15571;50.974;13.936;2024-02-04T06:08:04;100278.75;;;11.01;100.00
28310;BME280;15571;50.974;13.936;2024-02-04T06:11:09;100271.72;;;11.10;100.00
28310;BME280;15571;50.974;13.936;2024-02-04T06:14:12;100277.00;;;11.07;100.00
28310;BME280;15571;50.974;13.936;2024-02-04T06:17:14;100285.66;;;11.16;100.00
28310;BME280;15571;50.974;13.936;2024-02-04T06:20:16;100288.31;;;11.09;100.00
28310;BME280;15571;50.974;13.936;2024-02-04T06:23:20;100283.03;;;11.15;100.00
28310;BME280;15571;50.974;13.936;2024-02-04T06:26:22;100286.50;;;11.17;100.00
28310;BME280;15571;50.974;13.936;2024-02-04T06:29:32;100290.91;;;11.15;100.00
28310;BME280;15571;50.974;13.936;2024-02-04T06:32:34;100289.13;;;11.18;100.00
28310;BME280;15571;50.974;13.936;2024-02-04T06:35:36;100288.34;;;11.05;100.00
28310;BME280;15571;50.974;13.936;2024-02-04T06:38:38;100288.28;;;11.12;100.00
28310;BME280;15571;50.974;13.936;2024-02-04T06:41:40;100277.03;;;10.99;100.00
28310;BME280;15571;50.974;13.936;2024-02-04T06:44:43;100259.53;;;11.02;100.00
28310;BME280;15571;50.974;13.936;2024-02-04T06:47:52;100254.28;;;11.05;100.00
28310;BME280;15571;50.974;13.936;2024-02-04T06:50:57;100266.59;;;10.94;100.00
28310;BME280;15571;50.974;13.936;2024-02-04T06:53:59;100264.81;;;10.95;100.00
28310;BME280;15571;50.974;13.936;2024-02-04T06:57:02;100272.69;;;10.96;100.00
28310;BME280;15571;50.974;13.936;2024-02-04T07:00:06;100286.66;;;10.95;100.00
28310;BME280;15571;50.974;13.936;2024-02-04T07:03:08;100277.94;;;10.96;100.00
28310;BME280;15571;50.974;13.936;2024-02-04T07:06:13;100287.53;;;10.91;100.00
28310;BME280;15571;50.974;13.936;2024-02-04T07:09:17;100291.00;;;10.98;100.00
28310;BME280;15571;50.974;13.936;2024-02-04T07:12:18;100274.38;;;11.00;100.00
28310;BME280;15571;50.974;13.936;2024-02-04T07:15:22;100267.41;;;11.02;100.00
28310;BME280;15571;50.974;13.936;2024-02-04T07:18:36;100273.53;;;11.00;100.00
28310;BME280;15571;50.974;13.936;2024-02-04T07:21:37;100276.13;;;11.04;100.00
28310;BME280;15571;50.974;13.936;2024-02-04T07:24:40;100260.38;;;11.08;100.00
28310;BME280;15571;50.974;13.936;2024-02-04T07:27:42;100259.53;;;11.05;100.00
28310;BME280;15571;50.974;13.936;2024-02-04T07:30:45;100261.25;;;11.05;100.00
28310;BME280;15571;50.974;13.936;2024-02-04T07:33:47;100258.53;;;11.19;100.00
28310;BME280;15571;50.974;13.936;2024-02-04T07:36:49;100251.53;;;11.24;100.00
28310;BME280;15571;50.974;13.936;2024-02-04T07:39:54;100259.34;;;11.29;100.00
28310;BME280;15571;50.974;13.936;2024-02-04T07:42:56;100251.47;;;11.30;100.00
28310;BME280;15571;50.974;13.936;2024-02-04T07:45:59;100245.34;;;11.31;100.00
28310;BME280;15571;50.974;13.936;2024-02-04T07:49:02;100242.56;;;11.53;100.00
28310;BME280;15571;50.974;13.936;2024-02-04T07:52:04;100246.88;;;11.56;100.00
28310;BME280;15571;50.974;13.936;2024-02-04T07:55:07;100245.13;;;11.56;100.00
28310;BME280;15571;50.974;13.936;2024-02-04T07:58:09;100237.13;;;11.72;100.00
28310;BME280;15571;50.974;13.936;2024-02-04T08:01:15;100243.25;;;11.71;100.00
28310;BME280;15571;50.974;13.936;2024-02-04T08:04:22;100234.53;;;11.68;100.00
28310;BME280;15571;50.974;13.936;2024-02-04T08:07:27;100237.09;;;11.75;100.00
28310;BME280;15571;50.974;13.936;2024-02-04T08:10:29;100236.94;;;11.90;100.00
28310;BME280;15571;50.974;13.936;2024-02-04T08:13:33;100234.25;;;11.99;100.00
28310;BME280;15571;50.974;13.936;2024-02-04T08:16:40;100230.75;;;12.01;100.00
28310;BME280;15571;50.974;13.936;2024-02-04T08:19:48;100234.19;;;12.04;100.00
28310;BME280;15571;50.974;13.936;2024-02-04T08:22:51;100237.63;;;12.11;100.00
28310;BME280;15571;50.974;13.936;2024-02-04T08:25:53;100218.22;;;12.23;100.00
28310;BME280;15571;50.974;13.936;2024-02-04T08:28:55;100217.34;;;12.24;100.00
28310;BME280;15571;50.974;13.936;2024-02-04T08:32:04;100224.28;;;12.26;100.00
28310;BME280;15571;50.974;13.936;2024-02-04T08:35:06;100225.06;;;12.36;100.00
28310;BME280;15571;50.974;13.936;2024-02-04T08:38:08;100225.91;;;12.38;100.00
28310;BME280;15571;50.974;13.936;2024-02-04T08:41:12;100220.63;;;12.43;100.00
28310;BME280;15571;50.974;13.936;2024-02-04T08:44:15;100227.50;;;12.50;100.00
28310;BME280;15571;50.974;13.936;2024-02-04T08:47:18;100230.03;;;12.58;100.00
28310;BME280;15571;50.974;13.936;2024-02-04T08:50:28;100237.88;;;12.59;100.00
28310;BME280;15571;50.974;13.936;2024-02-04T08:53:30;100225.53;;;12.65;100.00
28310;BME280;15571;50.974;13.936;2024-02-04T08:56:32;100241.31;;;12.65;100.00
28310;BME280;15571;50.974;13.936;2024-02-04T08:59:34;100238.09;;;12.44;100.00
28310;BME280;15571;50.974;13.936;2024-02-04T09:02:37;100238.69;;;12.65;100.00
28310;BME280;15571;50.974;13.936;2024-02-04T09:05:40;100237.63;;;12.78;100.00
28310;BME280;15571;50.974;13.936;2024-02-04T09:08:42;100233.28;;;12.74;100.00
28310;BME280;15571;50.974;13.936;2024-02-04T09:11:44;100231.88;;;12.51;100.00
28310;BME280;15571;50.974;13.936;2024-02-04T09:14:51;100240.34;;;12.70;100.00
28310;BME280;15571;50.974;13.936;2024-02-04T09:17:58;100233.44;;;12.66;100.00
28310;BME280;15571;50.974;13.936;2024-02-04T09:20:59;100243.94;;;12.66;100.00
28310;BME280;15571;50.974;13.936;2024-02-04T09:24:01;100253.63;;;12.63;100.00
28310;BME280;15571;50.974;13.936;2024-02-04T09:27:04;100254.50;;;12.61;100.00
28310;BME280;15571;50.974;13.936;2024-02-04T09:30:06;100237.75;;;12.69;100.00
28310;BME280;15571;50.974;13.936;2024-02-04T09:33:09;100257.91;;;12.67;100.00
28310;BME280;15571;50.974;13.936;2024-02-04T09:36:13;100258.84;;;12.64;100.00
28310;BME280;15571;50.974;13.936;2024-02-04T09:39:15;100250.44;;;12.36;100.00
28310;BME280;15571;50.974;13.936;2024-02-04T09:42:18;100257.50;;;12.30;100.00
28310;BME280;15571;50.974;13.936;2024-02-04T09:45:21;100248.47;;;12.53;100.00
28310;BME280;15571;50.974;13.936;2024-02-04T09:48:24;100252.78;;;12.57;100.00
28310;BME280;15571;50.974;13.936;2024-02-04T09:51:27;100261.56;;;12.58;100.00
28310;BME280;15571;50.974;13.936;2024-02-04T09:54:29;100241.41;;;12.58;100.00
28310;BME280;15571;50.974;13.936;2024-02-04T09:57:33;100255.50;;;12.51;100.00
28310;BME280;15571;50.974;13.936;2024-02-04T10:00:38;100260.00;;;12.43;100.00
28310;BME280;15571;50.974;13.936;2024-02-04T10:03:48;100252.06;;;12.46;100.00
28310;BME280;15571;50.974;13.936;2024-02-04T10:06:50;100236.19;;;12.55;100.00
28310;BME280;15571;50.974;13.936;2024-02-04T10:09:53;100224.66;;;12.66;100.00
28310;BME280;15571;50.974;13.936;2024-02-04T10:12:58;100229.88;;;12.69;100.00
28310;BME280;15571;50.974;13.936;2024-02-04T10:16:02;100229.91;;;12.66;100.00
28310;BME280;15571;50.974;13.936;2024-02-04T10:19:07;100229.94;;;12.64;100.00
28310;BME280;15571;50.974;13.936;2024-02-04T10:22:09;100213.22;;;12.70;100.00
28310;BME280;15571;50.974;13.936;2024-02-04T10:25:11;100207.94;;;12.73;100.00
28310;BME280;15571;50.974;13.936;2024-02-04T10:28:14;100206.06;;;12.81;100.00
28310;BME280;15571;50.974;13.936;2024-02-04T10:31:17;100205.31;;;12.73;100.00
28310;BME280;15571;50.974;13.936;2024-02-04T10:34:20;100197.56;;;12.64;100.00
28310;BME280;15571;50.974;13.936;2024-02-04T10:37:22;100197.59;;;12.59;100.00
28310;BME280;15571;50.974;13.936;2024-02-04T10:40:24;100193.91;;;12.74;100.00
28310;BME280;15571;50.974;13.936;2024-02-04T10:43:31;100180.16;;;12.58;100.00
28310;BME280;15571;50.974;13.936;2024-02-04T10:46:34;100167.78;;;12.65;100.00
28310;BME280;15571;50.974;13.936;2024-02-04T10:49:39;100163.63;;;12.50;100.00
28310;BME280;15571;50.974;13.936;2024-02-04T10:52:46;100154.75;;;12.58;100.00
28310;BME280;15571;50.974;13.936;2024-02-04T10:55:48;100152.38;;;12.40;100.00
28310;BME280;15571;50.974;13.936;2024-02-04T10:58:51;100155.00;;;12.40;100.00
28310;BME280;15571;50.974;13.936;2024-02-04T11:01:53;100146.22;;;12.44;100.00
28310;BME280;15571;50.974;13.936;2024-02-04T11:04:57;100137.31;;;12.53;100.00
28310;BME280;15571;50.974;13.936;2024-02-04T11:08:00;100138.28;;;12.47;100.00
28310;BME280;15571;50.974;13.936;2024-02-04T11:11:05;100139.03;;;12.55;100.00
28310;BME280;15571;50.974;13.936;2024-02-04T11:14:08;100145.13;;;12.57;100.00
28310;BME280;15571;50.974;13.936;2024-02-04T11:17:31;100147.72;;;12.59;100.00
28310;BME280;15571;50.974;13.936;2024-02-04T11:20:42;100146.59;;;12.77;100.00
28310;BME280;15571;50.974;13.936;2024-02-04T11:23:51;100126.50;;;12.74;100.00
28310;BME280;15571;50.974;13.936;2024-02-04T11:26:57;100108.88;;;12.81;100.00
28310;BME280;15571;50.974;13.936;2024-02-04T11:29:59;100107.88;;;12.88;100.00
28310;BME280;15571;50.974;13.936;2024-02-04T11:33:01;100099.88;;;12.95;100.00
28310;BME280;15571;50.974;13.936;2024-02-04T11:36:05;100094.63;;;12.96;100.00
28310;BME280;15571;50.974;13.936;2024-02-04T11:39:13;100084.97;;;12.97;100.00
28310;BME280;15571;50.974;13.936;2024-02-04T11:42:16;100085.00;;;12.93;100.00
28310;BME280;15571;50.974;13.936;2024-02-04T11:45:20;100082.25;;;13.01;100.00
28310;BME280;15571;50.974;13.936;2024-02-04T11:48:28;100085.69;;;13.06;100.00
28310;BME280;15571;50.974;13.936;2024-02-04T11:51:46;100075.97;;;13.10;100.00
28310;BME280;15571;50.974;13.936;2024-02-04T11:54:49;100083.66;;;13.21;100.00
28310;BME280;15571;50.974;13.936;2024-02-04T11:57:51;100089.78;;;13.21;100.00
28310;BME280;15571;50.974;13.936;2024-02-04T12:00:53;100077.81;;;13.05;100.00
28310;BME280;15571;50.974;13.936;2024-02-04T12:03:58;100076.22;;;12.95;100.00
28310;BME280;15571;50.974;13.936;2024-02-04T12:07:11;100077.94;;;12.99;100.00
28310;BME280;15571;50.974;13.936;2024-02-04T12:10:14;100078.00;;;12.94;100.00
28310;BME280;15571;50.974;13.936;2024-02-04T12:13:16;100079.75;;;12.95;100.00
28310;BME280;15571;50.974;13.936;2024-02-04T12:16:23;100057.28;;;12.77;100.00
28310;BME280;15571;50.974;13.936;2024-02-04T12:19:28;100057.84;;;12.96;100.00
28310;BME280;15571;50.974;13.936;2024-02-04T12:22:31;100055.38;;;12.87;100.00
28310;BME280;15571;50.974;13.936;2024-02-04T12:25:34;100043.81;;;12.97;100.00
28310;BME280;15571;50.974;13.936;2024-02-04T12:28:36;100030.69;;;12.96;100.00
28310;BME280;15571;50.974;13.936;2024-02-04T12:31:41;100025.38;;;12.99;100.00
28310;BME280;15571;50.974;13.936;2024-02-04T12:34:46;100036.25;;;12.77;100.00
28310;BME280;15571;50.974;13.936;2024-02-04T12:37:53;100025.41;;;12.96;100.00
28310;BME280;15571;50.974;13.936;2024-02-04T12:41:00;100022.47;;;13.13;100.00
28310;BME280;15571;50.974;13.936;2024-02-04T12:44:03;100015.53;;;13.08;100.00
28310;BME280;15571;50.974;13.936;2024-02-04T12:47:05;100007.69;;;13.07;100.00
28310;BME280;15571;50.974;13.936;2024-02-04T12:50:08;100010.16;;;13.16;100.00
28310;BME280;15571;50.974;13.936;2024-02-04T12:53:14;100029.59;;;13.07;100.00
28310;BME280;15571;50.974;13.936;2024-02-04T12:56:16;100004.88;;;13.16;100.00
28310;BME280;15571;50.974;13.936;2024-02-04T12:59:24;100016.00;;;13.31;100.00
28310;BME280;15571;50.974;13.936;2024-02-04T13:02:27;100002.16;;;13.22;100.00
28310;BME280;15571;50.974;13.936;2024-02-04T13:05:29;99997.47;;;13.37;100.00
28310;BME280;15571;50.974;13.936;2024-02-04T13:08:33;100002.88;;;13.29;100.00
28310;BME280;15571;50.974;13.936;2024-02-04T13:11:38;100001.59;;;13.06;100.00
28310;BME280;15571;50.974;13.936;2024-02-04T13:14:41;99998.50;;;13.28;100.00
28310;BME280;15571;50.974;13.936;2024-02-04T13:17:45;99994.91;;;13.34;100.00
28310;BME280;15571;50.974;13.936;2024-02-04T13:20:47;99993.16;;;13.33;100.00
28310;BME280;15571;50.974;13.936;2024-02-04T13:23:52;99985.16;;;13.41;100.00
28310;BME280;15571;50.974;13.936;2024-02-04T13:26:54;99991.91;;;13.52;100.00
28310;BME280;15571;50.974;13.936;2024-02-04T13:29:56;99984.13;;;13.48;100.00
28310;BME280;15571;50.974;13.936;2024-02-04T13:32:58;99995.53;;;13.48;100.00
28310;BME280;15571;50.974;13.936;2024-02-04T13:36:02;100016.41;;;13.56;100.00
28310;BME280;15571;50.974;13.936;2024-02-04T13:39:06;100001.47;;;13.57;100.00
28310;BME280;15571;50.974;13.936;2024-02-04T13:42:08;100009.53;;;13.49;100.00
28310;BME280;15571;50.974;13.936;2024-02-04T13:45:17;100003.41;;;13.48;100.00
28310;BME280;15571;50.974;13.936;2024-02-04T13:48:19;100040.31;;;13.42;100.00
28310;BME280;15571;50.974;13.936;2024-02-04T13:51:26;100034.22;;;13.38;100.00
28310;BME280;15571;50.974;13.936;2024-02-04T13:54:32;100024.03;;;13.23;100.00
28310;BME280;15571;50.974;13.936;2024-02-04T13:57:35;100030.78;;;13.36;100.00
28310;BME280;15571;50.974;13.936;2024-02-04T14:00:37;100031.94;;;13.23;100.00
28310;BME280;15571;50.974;13.936;2024-02-04T14:03:39;100037.50;;;13.06;100.00
28310;BME280;15571;50.974;13.936;2024-02-04T14:06:41;100044.31;;;13.16;100.00
28310;BME280;15571;50.974;13.936;2024-02-04T14:09:45;100044.34;;;13.13;100.00
28310;BME280;15571;50.974;13.936;2024-02-04T14:12:47;100042.69;;;13.09;100.00
28310;BME280;15571;50.974;13.936;2024-02-04T14:15:49;100049.78;;;13.05;100.00
28310;BME280;15571;50.974;13.936;2024-02-04T14:18:53;100057.19;;;12.82;100.00
28310;BME280;15571;50.974;13.936;2024-02-04T14:21:55;100091.25;;;12.86;100.00
28310;BME280;15571;50.974;13.936;2024-02-04T14:24:58;100093.66;;;12.47;100.00
28310;BME280;15571;50.974;13.936;2024-02-04T14:28:00;100080.41;;;12.55;100.00
28310;BME280;15571;50.974;13.936;2024-02-04T14:31:02;100073.22;;;12.07;100.00
28310;BME280;15571;50.974;13.936;2024-02-04T14:34:04;100061.66;;;12.23;100.00
28310;BME280;15571;50.974;13.936;2024-02-04T14:37:06;100081.94;;;12.10;100.00
28310;BME280;15571;50.974;13.936;2024-02-04T14:40:10;100080.78;;;12.32;100.00
28310;BME280;15571;50.974;13.936;2024-02-04T14:43:13;100070.53;;;12.13;100.00
28310;BME280;15571;50.974;13.936;2024-02-04T14:46:18;100062.44;;;12.28;100.00
28310;BME280;15571;50.974;13.936;2024-02-04T14:49:19;100059.69;;;12.35;100.00
28310;BME280;15571;50.974;13.936;2024-02-04T14:52:21;100056.28;;;12.29;100.00
28310;BME280;15571;50.974;13.936;2024-02-04T14:55:28;100055.25;;;12.40;100.00
28310;BME280;15571;50.974;13.936;2024-02-04T14:58:29;100070.34;;;12.25;100.00
28310;BME280;15571;50.974;13.936;2024-02-04T15:01:34;100067.34;;;12.50;100.00
28310;BME280;15571;50.974;13.936;2024-02-04T15:04:39;100058.78;;;12.39;100.00
28310;BME280;15571;50.974;13.936;2024-02-04T15:07:41;100061.41;;;12.39;100.00
28310;BME280;15571;50.974;13.936;2024-02-04T15:10:44;100079.16;;;12.21;100.00
28310;BME280;15571;50.974;13.936;2024-02-04T15:13:46;100079.47;;;11.99;100.00
28310;BME280;15571;50.974;13.936;2024-02-04T15:16:48;100078.34;;;12.18;100.00
28310;BME280;15571;50.974;13.936;2024-02-04T15:19:51;100076.91;;;11.92;100.00
28310;BME280;15571;50.974;13.936;2024-02-04T15:22:56;100073.13;;;12.14;100.00
28310;BME280;15571;50.974;13.936;2024-02-04T15:26:04;100074.97;;;12.09;100.00
28310;BME280;15571;50.974;13.936;2024-02-04T15:29:08;100078.63;;;11.93;100.00
28310;BME280;15571;50.974;13.936;2024-02-04T15:32:14;100079.53;;;11.93;100.00
28310;BME280;15571;50.974;13.936;2024-02-04T15:35:18;100090.72;;;12.09;100.00